sensor_id;sensor_type;location;lat;lon;timestamp;pressure;altitude;pressure_sealevel;temperature;humidity
19783;BME280;10051;40.294;-3.754;2023-02-22T00:00:51;94125.47;;;12.10;56.52
19783;BME280;10051;40.294;-3.754;2023-02-22T00:03:29;94257.94;;;12.87;56.66
19783;BME280;10051;40.294;-3.754;2023-02-22T00:06:04;94211.94;;;12.60;56.76
19783;BME280;10051;40.294;-3.754;2023-02-22T00:08:33;94254.00;;;12.84;57.00
19783;BME280;10051;40.294;-3.754;2023-02-22T00:11:00;94254.19;;;12.74;57.59
19783;BME280;10051;40.294;-3.754;2023-02-22T00:13:26;94257.31;;;12.76;57.61
19783;BME280;10051;40.294;-3.754;2023-02-22T00:15:57;94252.41;;;12.69;57.79
19783;BME280;10051;40.294;-3.754;2023-02-22T00:18:23;94191.25;;;12.34;57.62
19783;BME280;10051;40.294;-3.754;2023-02-22T00:20:52;94250.69;;;12.78;57.38
19783;BME280;10051;40.294;-3.754;2023-02-22T00:23:19;94252.16;;;12.85;57.34
19783;BME280;10051;40.294;-3.754;2023-02-22T00:25:47;94249.97;;;12.73;57.97
19783;BME280;10051;40.294;-3.754;2023-02-22T00:28:13;94248.84;;;12.60;57.98
19783;BME280;10051;40.294;-3.754;2023-02-22T00:30:39;94249.94;;;12.59;58.32
19783;BME280;10051;40.294;-3.754;2023-02-22T00:33:09;94228.72;;;12.50;58.41
19783;BME280;10051;40.294;-3.754;2023-02-22T00:35:35;94194.22;;;12.13;58.25
19783;BME280;10051;40.294;-3.754;2023-02-22T00:38:02;94247.53;;;12.43;58.90
19783;BME280;10051;40.294;-3.754;2023-02-22T00:40:33;94244.78;;;12.34;58.63
19783;BME280;10051;40.294;-3.754;2023-02-22T00:43:00;94200.22;;;12.00;58.74
19783;BME280;10051;40.294;-3.754;2023-02-22T00:45:28;94228.97;;;12.15;59.48
19783;BME280;10051;40.294;-3.754;2023-02-22T00:47:54;94137.97;;;11.66;59.12
19783;BME280;10051;40.294;-3.754;2023-02-22T00:50:21;94142.94;;;11.48;59.65
19783;BME280;10051;40.294;-3.754;2023-02-22T00:52:47;94179.63;;;11.83;59.78
19783;BME280;10051;40.294;-3.754;2023-02-22T00:55:22;94132.03;;;11.55;59.58
19783;BME280;10051;40.294;-3.754;2023-02-22T00:57:48;94200.75;;;11.97;59.98
19783;BME280;10051;40.294;-3.754;2023-02-22T01:00:32;94257.47;;;12.32;60.02
19783;BME280;10051;40.294;-3.754;2023-02-22T01:02:58;94255.22;;;12.40;59.74
19783;BME280;10051;40.294;-3.754;2023-02-22T01:05:27;94262.66;;;12.38;59.82
19783;BME280;10051;40.294;-3.754;2023-02-22T01:07:54;94184.31;;;11.67;60.69
19783;BME280;10051;40.294;-3.754;2023-02-22T01:10:22;94256.81;;;12.02;61.12
19783;BME280;10051;40.294;-3.754;2023-02-22T01:12:48;94263.00;;;11.93;61.77
19783;BME280;10051;40.294;-3.754;2023-02-22T01:15:23;94193.44;;;11.31;62.24
19783;BME280;10051;40.294;-3.754;2023-02-22T01:17:50;94267.28;;;11.64;62.45
19783;BME280;10051;40.294;-3.754;2023-02-22T01:20:16;94219.47;;;11.33;63.08
19783;BME280;10051;40.294;-3.754;2023-02-22T01:22:45;94249.84;;;11.49;63.25
19783;BME280;10051;40.294;-3.754;2023-02-22T01:25:15;94225.19;;;11.40;62.85
19783;BME280;10051;40.294;-3.754;2023-02-22T01:27:41;94251.00;;;11.62;62.61
19783;BME280;10051;40.294;-3.754;2023-02-22T01:30:09;94235.47;;;11.60;62.61
19783;BME280;10051;40.294;-3.754;2023-02-22T01:32:38;94214.22;;;11.33;62.90
19783;BME280;10051;40.294;-3.754;2023-02-22T01:35:07;94276.50;;;11.67;63.29
19783;BME280;10051;40.294;-3.754;2023-02-22T01:37:36;94272.09;;;11.81;62.80
19783;BME280;10051;40.294;-3.754;2023-02-22T01:40:03;94197.72;;;11.03;63.29
19783;BME280;10051;40.294;-3.754;2023-02-22T01:42:32;94266.84;;;11.33;64.05
19783;BME280;10051;40.294;-3.754;2023-02-22T01:48:17;94258.69;;;11.10;65.31
19783;BME280;10051;40.294;-3.754;2023-02-22T01:51:09;94258.88;;;10.89;65.84
19783;BME280;10051;40.294;-3.754;2023-02-22T01:54:00;94166.16;;;10.14;67.20
19783;BME280;10051;40.294;-3.754;2023-02-22T01:56:30;94253.97;;;10.77;66.82
19783;BME280;10051;40.294;-3.754;2023-02-22T01:59:08;94174.63;;;10.40;66.56
19783;BME280;10051;40.294;-3.754;2023-02-22T02:01:36;94262.38;;;11.09;66.11
19783;BME280;10051;40.294;-3.754;2023-02-22T02:04:06;94212.91;;;10.81;66.01
19783;BME280;10051;40.294;-3.754;2023-02-22T02:06:34;94261.16;;;11.25;65.48
19783;BME280;10051;40.294;-3.754;2023-02-22T02:10:05;94200.69;;;10.66;65.48
19783;BME280;10051;40.294;-3.754;2023-02-22T02:12:07;94251.34;;;10.77;67.00
19783;BME280;10051;40.294;-3.754;2023-02-22T02:14:34;94250.03;;;10.80;67.20
19783;BME280;10051;40.294;-3.754;2023-02-22T02:17:09;94259.66;;;10.90;67.16
19783;BME280;10051;40.294;-3.754;2023-02-22T02:28:04;94248.06;;;11.20;65.98
19783;BME280;10051;40.294;-3.754;2023-02-22T02:33:49;94243.72;;;11.29;65.70
19783;BME280;10051;40.294;-3.754;2023-02-22T02:36:36;94246.31;;;11.35;65.77
19783;BME280;10051;40.294;-3.754;2023-02-22T02:39:18;94179.34;;;10.97;65.48
19783;BME280;10051;40.294;-3.754;2023-02-22T02:41:49;94244.69;;;11.39;65.53
19783;BME280;10051;40.294;-3.754;2023-02-22T02:44:40;94221.19;;;11.23;65.28
19783;BME280;10051;40.294;-3.754;2023-02-22T02:47:33;94243.13;;;11.38;65.34
19783;BME280;10051;40.294;-3.754;2023-02-22T02:50:13;94207.69;;;11.06;65.80
19783;BME280;10051;40.294;-3.754;2023-02-22T02:52:41;94210.66;;;10.99;65.94
19783;BME280;10051;40.294;-3.754;2023-02-22T02:55:10;94199.22;;;10.84;66.48
19783;BME280;10051;40.294;-3.754;2023-02-22T02:57:37;94235.91;;;11.24;65.64
19783;BME280;10051;40.294;-3.754;2023-02-22T03:00:07;94183.88;;;10.92;65.29
19783;BME280;10051;40.294;-3.754;2023-02-22T03:08:43;94205.44;;;10.94;65.34
19783;BME280;10051;40.294;-3.754;2023-02-22T03:11:21;94231.72;;;11.23;65.03
19783;BME280;10051;40.294;-3.754;2023-02-22T03:13:55;94213.88;;;10.91;65.57
19783;BME280;10051;40.294;-3.754;2023-02-22T03:16:47;94229.72;;;10.56;67.44
19783;BME280;10051;40.294;-3.754;2023-02-22T03:19:50;94226.19;;;10.36;69.07
19783;BME280;10051;40.294;-3.754;2023-02-22T03:22:32;94221.50;;;10.28;69.83
19783;BME280;10051;40.294;-3.754;2023-02-22T03:25:06;94228.16;;;10.55;69.22
19783;BME280;10051;40.294;-3.754;2023-02-22T03:27:50;94203.00;;;10.44;68.88
19783;BME280;10051;40.294;-3.754;2023-02-22T03:30:53;94231.28;;;10.57;69.24
19783;BME280;10051;40.294;-3.754;2023-02-22T03:33:39;94218.66;;;10.59;69.10
19783;BME280;10051;40.294;-3.754;2023-02-22T03:36:21;94195.41;;;10.37;68.75
19783;BME280;10051;40.294;-3.754;2023-02-22T03:38:51;94234.09;;;10.31;70.17
19783;BME280;10051;40.294;-3.754;2023-02-22T03:41:22;94200.44;;;9.99;71.14
19783;BME280;10051;40.294;-3.754;2023-02-22T03:43:53;94158.78;;;9.81;70.91
19783;BME280;10051;40.294;-3.754;2023-02-22T03:46:20;94226.59;;;10.49;70.25
19783;BME280;10051;40.294;-3.754;2023-02-22T03:49:04;94233.13;;;10.56;69.87
19783;BME280;10051;40.294;-3.754;2023-02-22T03:51:34;94229.78;;;10.46;69.79
19783;BME280;10051;40.294;-3.754;2023-02-22T03:54:01;94212.69;;;10.08;71.22
19783;BME280;10051;40.294;-3.754;2023-02-22T03:56:31;94225.84;;;10.08;71.93
19783;BME280;10051;40.294;-3.754;2023-02-22T03:59:05;94212.59;;;9.84;72.53
19783;BME280;10051;40.294;-3.754;2023-02-22T04:01:32;94225.22;;;10.22;71.62
19783;BME280;10051;40.294;-3.754;2023-02-22T04:03:58;94190.63;;;10.09;70.49
19783;BME280;10051;40.294;-3.754;2023-02-22T04:06:25;94208.09;;;10.24;70.50
19783;BME280;10051;40.294;-3.754;2023-02-22T04:08:51;94224.03;;;10.38;70.15
19783;BME280;10051;40.294;-3.754;2023-02-22T04:11:17;94223.97;;;10.49;70.02
19783;BME280;10051;40.294;-3.754;2023-02-22T04:13:42;94227.66;;;10.48;69.86
19783;BME280;10051;40.294;-3.754;2023-02-22T04:16:08;94230.25;;;10.53;69.99
19783;BME280;10051;40.294;-3.754;2023-02-22T04:18:33;94171.78;;;10.32;69.29
19783;BME280;10051;40.294;-3.754;2023-02-22T04:20:59;94170.31;;;10.20;68.91
19783;BME280;10051;40.294;-3.754;2023-02-22T04:23:25;94216.00;;;10.59;68.77
19783;BME280;10051;40.294;-3.754;2023-02-22T04:25:51;94235.44;;;10.63;68.86
19783;BME280;10051;40.294;-3.754;2023-02-22T04:28:17;94164.28;;;10.20;68.84
19783;BME280;10051;40.294;-3.754;2023-02-22T04:30:43;94176.50;;;10.35;68.63
19783;BME280;10051;40.294;-3.754;2023-02-22T04:33:10;94221.00;;;10.26;69.70
19783;BME280;10051;40.294;-3.754;2023-02-22T04:35:35;94211.31;;;9.81;70.83
19783;BME280;10051;40.294;-3.754;2023-02-22T04:38:01;94161.91;;;9.38;71.41
19783;BME280;10051;40.294;-3.754;2023-02-22T04:40:28;94137.59;;;9.22;72.41
19783;BME280;10051;40.294;-3.754;2023-02-22T04:42:54;94223.47;;;9.62;73.28
19783;BME280;10051;40.294;-3.754;2023-02-22T04:45:20;94180.56;;;9.37;73.68
19783;BME280;10051;40.294;-3.754;2023-02-22T04:47:45;94219.25;;;9.66;73.59
19783;BME280;10051;40.294;-3.754;2023-02-22T04:50:11;94170.47;;;9.55;71.94
19783;BME280;10051;40.294;-3.754;2023-02-22T04:52:37;94184.53;;;9.79;71.17
19783;BME280;10051;40.294;-3.754;2023-02-22T04:55:03;94213.75;;;10.07;70.99
19783;BME280;10051;40.294;-3.754;2023-02-22T04:57:29;94226.94;;;9.97;70.71
19783;BME280;10051;40.294;-3.754;2023-02-22T04:59:55;94215.03;;;9.70;71.86
19783;BME280;10051;40.294;-3.754;2023-02-22T05:02:21;94202.59;;;9.41;73.55
19783;BME280;10051;40.294;-3.754;2023-02-22T05:04:46;94161.81;;;8.99;73.72
19783;BME280;10051;40.294;-3.754;2023-02-22T05:07:12;94210.72;;;9.40;73.32
19783;BME280;10051;40.294;-3.754;2023-02-22T05:09:38;94215.56;;;9.67;72.25
19783;BME280;10051;40.294;-3.754;2023-02-22T05:12:03;94185.16;;;9.61;71.16
19783;BME280;10051;40.294;-3.754;2023-02-22T05:14:29;94196.69;;;9.65;71.21
19783;BME280;10051;40.294;-3.754;2023-02-22T05:16:58;94180.56;;;9.37;70.93
19783;BME280;10051;40.294;-3.754;2023-02-22T05:19:24;94167.59;;;9.01;72.41
19783;BME280;10051;40.294;-3.754;2023-02-22T05:21:49;94226.28;;;9.15;73.48
19783;BME280;10051;40.294;-3.754;2023-02-22T05:24:15;94210.09;;;8.92;74.56
19783;BME280;10051;40.294;-3.754;2023-02-22T05:26:44;94240.22;;;9.00;75.17
19783;BME280;10051;40.294;-3.754;2023-02-22T05:29:11;94223.75;;;8.89;75.40
19783;BME280;10051;40.294;-3.754;2023-02-22T05:31:37;94204.63;;;8.73;75.68
19783;BME280;10051;40.294;-3.754;2023-02-22T05:34:02;94204.88;;;8.72;75.70
19783;BME280;10051;40.294;-3.754;2023-02-22T05:36:28;94185.00;;;8.60;75.13
19783;BME280;10051;40.294;-3.754;2023-02-22T05:38:54;94179.50;;;8.52;75.43
19783;BME280;10051;40.294;-3.754;2023-02-22T05:41:20;94211.75;;;8.57;76.02
19783;BME280;10051;40.294;-3.754;2023-02-22T05:43:45;94235.56;;;8.76;75.27
19783;BME280;10051;40.294;-3.754;2023-02-22T05:46:13;94224.28;;;8.76;75.62
19783;BME280;10051;40.294;-3.754;2023-02-22T05:48:38;94181.84;;;8.48;74.81
19783;BME280;10051;40.294;-3.754;2023-02-22T05:51:04;94242.34;;;8.98;75.14
19783;BME280;10051;40.294;-3.754;2023-02-22T05:53:30;94199.94;;;8.60;74.70
19783;BME280;10051;40.294;-3.754;2023-02-22T05:55:56;94221.66;;;8.71;75.01
19783;BME280;10051;40.294;-3.754;2023-02-22T05:58:21;94219.56;;;8.62;75.58
19783;BME280;10051;40.294;-3.754;2023-02-22T06:00:47;94225.63;;;8.58;75.49
19783;BME280;10051;40.294;-3.754;2023-02-22T06:03:13;94245.25;;;8.76;74.98
19783;BME280;10051;40.294;-3.754;2023-02-22T06:05:39;94241.88;;;8.75;75.30
19783;BME280;10051;40.294;-3.754;2023-02-22T06:08:06;94251.31;;;8.71;75.70
19783;BME280;10051;40.294;-3.754;2023-02-22T06:10:32;94250.25;;;8.77;75.25
19783;BME280;10051;40.294;-3.754;2023-02-22T06:12:58;94250.75;;;8.85;75.28
19783;BME280;10051;40.294;-3.754;2023-02-22T06:15:25;94249.97;;;8.89;74.69
19783;BME280;10051;40.294;-3.754;2023-02-22T06:17:52;94251.03;;;8.83;74.77
19783;BME280;10051;40.294;-3.754;2023-02-22T06:20:20;94195.47;;;8.34;75.22
19783;BME280;10051;40.294;-3.754;2023-02-22T06:22:51;94241.59;;;8.72;75.55
19783;BME280;10051;40.294;-3.754;2023-02-22T06:25:19;94218.56;;;8.58;74.89
19783;BME280;10051;40.294;-3.754;2023-02-22T06:27:45;94247.06;;;8.96;74.23
19783;BME280;10051;40.294;-3.754;2023-02-22T06:30:12;94262.50;;;9.13;73.80
19783;BME280;10051;40.294;-3.754;2023-02-22T06:32:38;94237.63;;;8.95;73.23
19783;BME280;10051;40.294;-3.754;2023-02-22T06:35:04;94247.31;;;9.05;73.28
19783;BME280;10051;40.294;-3.754;2023-02-22T06:37:30;94191.25;;;8.75;72.67
19783;BME280;10051;40.294;-3.754;2023-02-22T06:39:55;94274.31;;;9.05;73.04
19783;BME280;10051;40.294;-3.754;2023-02-22T06:42:21;94268.56;;;8.98;73.10
19783;BME280;10051;40.294;-3.754;2023-02-22T06:44:47;94219.56;;;8.78;72.86
19783;BME280;10051;40.294;-3.754;2023-02-22T06:47:12;94218.78;;;8.67;72.97
19783;BME280;10051;40.294;-3.754;2023-02-22T06:49:38;94280.59;;;9.20;72.57
19783;BME280;10051;40.294;-3.754;2023-02-22T06:52:05;94244.97;;;8.93;72.91
19783;BME280;10051;40.294;-3.754;2023-02-22T06:54:31;94268.78;;;9.22;71.40
19783;BME280;10051;40.294;-3.754;2023-02-22T06:56:57;94219.84;;;8.82;72.33
19783;BME280;10051;40.294;-3.754;2023-02-22T06:59:22;94191.78;;;8.72;71.88
19783;BME280;10051;40.294;-3.754;2023-02-22T07:01:48;94230.56;;;8.90;71.52
19783;BME280;10051;40.294;-3.754;2023-02-22T07:04:14;94281.38;;;9.15;71.70
19783;BME280;10051;40.294;-3.754;2023-02-22T07:06:48;94250.72;;;8.95;72.38
19783;BME280;10051;40.294;-3.754;2023-02-22T07:09:15;94280.59;;;9.10;72.77
19783;BME280;10051;40.294;-3.754;2023-02-22T07:11:41;94231.63;;;8.79;72.60
19783;BME280;10051;40.294;-3.754;2023-02-22T07:14:07;94280.34;;;9.06;72.29
19783;BME280;10051;40.294;-3.754;2023-02-22T07:16:32;94242.31;;;9.03;71.65
19783;BME280;10051;40.294;-3.754;2023-02-22T07:18:58;94255.13;;;9.15;71.11
19783;BME280;10051;40.294;-3.754;2023-02-22T07:21:28;94260.34;;;9.31;70.47
19783;BME280;10051;40.294;-3.754;2023-02-22T07:23:56;94249.94;;;9.00;70.76
19783;BME280;10051;40.294;-3.754;2023-02-22T07:26:23;94181.59;;;8.55;71.35
19783;BME280;10051;40.294;-3.754;2023-02-22T07:28:49;94247.88;;;8.91;71.78
19783;BME280;10051;40.294;-3.754;2023-02-22T07:31:16;94173.72;;;8.29;72.58
19783;BME280;10051;40.294;-3.754;2023-02-22T07:33:42;94279.56;;;8.95;72.64
19783;BME280;10051;40.294;-3.754;2023-02-22T07:36:08;94263.34;;;8.77;72.24
19783;BME280;10051;40.294;-3.754;2023-02-22T07:38:33;94306.06;;;8.99;72.19
19783;BME280;10051;40.294;-3.754;2023-02-22T07:40:59;94298.47;;;8.92;72.66
19783;BME280;10051;40.294;-3.754;2023-02-22T07:43:27;94303.19;;;8.90;72.50
19783;BME280;10051;40.294;-3.754;2023-02-22T07:45:58;94308.69;;;8.99;72.41
19783;BME280;10051;40.294;-3.754;2023-02-22T07:48:26;94249.72;;;8.50;72.30
19783;BME280;10051;40.294;-3.754;2023-02-22T07:50:52;94313.66;;;8.95;72.06
19783;BME280;10051;40.294;-3.754;2023-02-22T07:53:24;94269.91;;;8.65;71.83
19783;BME280;10051;40.294;-3.754;2023-02-22T07:55:51;94205.97;;;8.09;72.75
19783;BME280;10051;40.294;-3.754;2023-02-22T07:58:23;94225.31;;;8.23;72.90
19783;BME280;10051;40.294;-3.754;2023-02-22T08:00:49;94214.84;;;8.08;72.67
19783;BME280;10051;40.294;-3.754;2023-02-22T08:03:17;94233.97;;;8.18;72.71
19783;BME280;10051;40.294;-3.754;2023-02-22T08:05:49;94175.53;;;7.82;72.60
19783;BME280;10051;40.294;-3.754;2023-02-22T08:08:16;94294.81;;;8.67;72.55
19783;BME280;10051;40.294;-3.754;2023-02-22T08:10:42;94330.22;;;8.90;72.33
19783;BME280;10051;40.294;-3.754;2023-02-22T08:13:09;94329.41;;;8.90;72.60
19783;BME280;10051;40.294;-3.754;2023-02-22T08:15:39;94328.13;;;8.98;72.58
19783;BME280;10051;40.294;-3.754;2023-02-22T08:18:08;94333.59;;;8.86;73.55
19783;BME280;10051;40.294;-3.754;2023-02-22T08:20:35;94334.16;;;8.77;73.74
19783;BME280;10051;40.294;-3.754;2023-02-22T08:23:02;94337.28;;;9.05;73.60
19783;BME280;10051;40.294;-3.754;2023-02-22T08:25:28;94339.84;;;9.36;72.21
19783;BME280;10051;40.294;-3.754;2023-02-22T08:27:59;94308.34;;;9.42;70.78
19783;BME280;10051;40.294;-3.754;2023-02-22T08:30:26;94332.69;;;9.58;70.87
19783;BME280;10051;40.294;-3.754;2023-02-22T08:32:52;94300.75;;;9.40;71.08
19783;BME280;10051;40.294;-3.754;2023-02-22T08:35:24;94250.16;;;9.14;70.68
19783;BME280;10051;40.294;-3.754;2023-02-22T08:37:56;94338.94;;;9.77;70.51
19783;BME280;10051;40.294;-3.754;2023-02-22T08:40:24;94334.72;;;9.81;70.13
19783;BME280;10051;40.294;-3.754;2023-02-22T08:42:50;94338.38;;;9.91;69.60
19783;BME280;10051;40.294;-3.754;2023-02-22T08:45:16;94329.41;;;9.97;69.27
19783;BME280;10051;40.294;-3.754;2023-02-22T08:47:42;94322.00;;;10.09;68.61
19783;BME280;10051;40.294;-3.754;2023-02-22T08:50:09;94346.00;;;10.43;67.84
19783;BME280;10051;40.294;-3.754;2023-02-22T08:52:35;94289.41;;;10.10;67.31
19783;BME280;10051;40.294;-3.754;2023-02-22T08:55:01;94349.63;;;10.52;67.74
19783;BME280;10051;40.294;-3.754;2023-02-22T08:57:27;94293.13;;;10.04;66.80
19783;BME280;10051;40.294;-3.754;2023-02-22T08:59:52;94283.59;;;10.14;66.88
19783;BME280;10051;40.294;-3.754;2023-02-22T09:02:20;94343.56;;;10.56;67.27
19783;BME280;10051;40.294;-3.754;2023-02-22T09:04:47;94337.78;;;10.60;66.55
19783;BME280;10051;40.294;-3.754;2023-02-22T09:07:14;94339.28;;;10.66;66.40
19783;BME280;10051;40.294;-3.754;2023-02-22T09:09:43;94335.88;;;10.65;66.06
19783;BME280;10051;40.294;-3.754;2023-02-22T09:12:09;94339.81;;;10.63;66.21
19783;BME280;10051;40.294;-3.754;2023-02-22T09:14:37;94238.97;;;10.08;65.23
19783;BME280;10051;40.294;-3.754;2023-02-22T09:17:05;94301.94;;;10.64;65.30
19783;BME280;10051;40.294;-3.754;2023-02-22T09:19:30;94350.72;;;11.20;64.29
19783;BME280;10051;40.294;-3.754;2023-02-22T09:21:57;94356.41;;;11.27;63.77
19783;BME280;10051;40.294;-3.754;2023-02-22T09:24:24;94270.97;;;10.90;63.27
19783;BME280;10051;40.294;-3.754;2023-02-22T09:26:50;94355.81;;;11.36;63.42
19783;BME280;10051;40.294;-3.754;2023-02-22T09:29:24;94307.34;;;11.12;63.48
19783;BME280;10051;40.294;-3.754;2023-02-22T09:31:52;94320.13;;;11.24;62.98
19783;BME280;10051;40.294;-3.754;2023-02-22T09:34:20;94336.22;;;11.47;63.51
19783;BME280;10051;40.294;-3.754;2023-02-22T09:36:47;94302.13;;;11.31;62.54
19783;BME280;10051;40.294;-3.754;2023-02-22T09:39:17;94332.59;;;11.67;61.81
19783;BME280;10051;40.294;-3.754;2023-02-22T09:44:48;94340.09;;;11.79;61.36
19783;BME280;10051;40.294;-3.754;2023-02-22T09:47:40;94345.75;;;11.92;60.96
19783;BME280;10051;40.294;-3.754;2023-02-22T09:50:16;94274.03;;;11.51;60.36
19783;BME280;10051;40.294;-3.754;2023-02-22T09:52:52;94338.91;;;11.90;61.00
19783;BME280;10051;40.294;-3.754;2023-02-22T09:55:50;94309.72;;;11.87;60.90
19783;BME280;10051;40.294;-3.754;2023-02-22T09:58:38;94336.28;;;12.34;59.54
19783;BME280;10051;40.294;-3.754;2023-02-22T10:01:18;94345.13;;;12.43;58.70
19783;BME280;10051;40.294;-3.754;2023-02-22T10:03:51;94338.22;;;12.28;59.15
19783;BME280;10051;40.294;-3.754;2023-02-22T10:06:22;94332.13;;;12.28;59.42
19783;BME280;10051;40.294;-3.754;2023-02-22T10:08:51;94333.13;;;12.32;59.61
19783;BME280;10051;40.294;-3.754;2023-02-22T10:14:21;94342.91;;;12.70;57.90
19783;BME280;10051;40.294;-3.754;2023-02-22T10:17:17;94344.31;;;12.62;58.44
19783;BME280;10051;40.294;-3.754;2023-02-22T10:25:17;94326.53;;;12.87;56.86
19783;BME280;10051;40.294;-3.754;2023-02-22T10:27:46;94349.88;;;13.13;56.56
19783;BME280;10051;40.294;-3.754;2023-02-22T10:30:22;94347.38;;;13.35;55.59
19783;BME280;10051;40.294;-3.754;2023-02-22T10:32:57;94304.88;;;13.04;55.83
19783;BME280;10051;40.294;-3.754;2023-02-22T10:35:33;94337.09;;;13.20;55.72
19783;BME280;10051;40.294;-3.754;2023-02-22T10:38:29;94343.94;;;13.35;55.65
19783;BME280;10051;40.294;-3.754;2023-02-22T10:41:07;94336.69;;;13.46;55.50
19783;BME280;10051;40.294;-3.754;2023-02-22T10:43:43;94337.28;;;13.57;55.19
19783;BME280;10051;40.294;-3.754;2023-02-22T10:46:15;94339.59;;;13.58;55.06
19783;BME280;10051;40.294;-3.754;2023-02-22T10:48:44;94216.75;;;12.72;54.51
19783;BME280;10051;40.294;-3.754;2023-02-22T10:51:11;94276.84;;;13.08;54.87
19783;BME280;10051;40.294;-3.754;2023-02-22T10:53:38;94331.09;;;13.47;54.56
19783;BME280;10051;40.294;-3.754;2023-02-22T10:56:21;94341.66;;;13.75;54.55
19783;BME280;10051;40.294;-3.754;2023-02-22T10:58:57;94313.75;;;13.69;54.27
19783;BME280;10051;40.294;-3.754;2023-02-22T11:01:27;94342.16;;;13.91;53.84
19783;BME280;10051;40.294;-3.754;2023-02-22T11:04:17;94329.59;;;14.11;53.85
19783;BME280;10051;40.294;-3.754;2023-02-22T11:06:49;94337.44;;;14.16;52.63
19783;BME280;10051;40.294;-3.754;2023-02-22T11:09:30;94301.25;;;13.75;52.83
19783;BME280;10051;40.294;-3.754;2023-02-22T11:12:10;94292.44;;;13.79;53.13
19783;BME280;10051;40.294;-3.754;2023-02-22T11:14:36;94320.66;;;14.21;52.62
19783;BME280;10051;40.294;-3.754;2023-02-22T11:17:06;94328.88;;;14.33;52.25
19783;BME280;10051;40.294;-3.754;2023-02-22T11:19:33;94284.94;;;14.23;51.90
19783;BME280;10051;40.294;-3.754;2023-02-22T11:24:32;94321.28;;;14.54;51.75
19783;BME280;10051;40.294;-3.754;2023-02-22T11:27:03;94254.38;;;14.17;51.28
19783;BME280;10051;40.294;-3.754;2023-02-22T11:29:36;94320.53;;;14.77;50.89
19783;BME280;10051;40.294;-3.754;2023-02-22T11:32:13;94304.97;;;14.75;51.29
19783;BME280;10051;40.294;-3.754;2023-02-22T11:34:45;94292.03;;;14.74;50.94
19783;BME280;10051;40.294;-3.754;2023-02-22T11:37:31;94220.38;;;14.47;50.29
19783;BME280;10051;40.294;-3.754;2023-02-22T11:43:05;94310.88;;;15.26;50.17
19783;BME280;10051;40.294;-3.754;2023-02-22T11:45:34;94278.84;;;15.14;50.04
19783;BME280;10051;40.294;-3.754;2023-02-22T11:48:01;94304.13;;;15.52;49.75
19783;BME280;10051;40.294;-3.754;2023-02-22T11:55:57;94304.94;;;15.61;48.47
19783;BME280;10051;40.294;-3.754;2023-02-22T12:01:28;94302.16;;;15.66;47.67
19783;BME280;10051;40.294;-3.754;2023-02-22T12:04:19;94304.72;;;15.49;48.20
19783;BME280;10051;40.294;-3.754;2023-02-22T12:18:08;94238.72;;;15.79;47.36
19783;BME280;10051;40.294;-3.754;2023-02-22T12:20:52;94272.50;;;16.31;46.73
19783;BME280;10051;40.294;-3.754;2023-02-22T12:23:43;94268.59;;;16.55;46.14
19783;BME280;10051;40.294;-3.754;2023-02-22T12:26:15;94264.66;;;16.70;46.23
19783;BME280;10051;40.294;-3.754;2023-02-22T12:31:49;94262.31;;;16.94;44.45
19783;BME280;10051;40.294;-3.754;2023-02-22T12:34:32;94235.31;;;16.75;44.75
19783;BME280;10051;40.294;-3.754;2023-02-22T12:39:54;94245.28;;;16.95;44.11
19783;BME280;10051;40.294;-3.754;2023-02-22T12:42:34;94236.53;;;16.86;44.04
19783;BME280;10051;40.294;-3.754;2023-02-22T12:45:08;94181.03;;;16.46;44.11
19783;BME280;10051;40.294;-3.754;2023-02-22T12:47:44;94186.34;;;16.46;44.23
19783;BME280;10051;40.294;-3.754;2023-02-22T12:50:19;94217.66;;;16.79;43.81
19783;BME280;10051;40.294;-3.754;2023-02-22T12:52:52;94236.38;;;17.00;43.76
19783;BME280;10051;40.294;-3.754;2023-02-22T12:55:43;94181.38;;;16.92;43.29
19783;BME280;10051;40.294;-3.754;2023-02-22T12:58:26;94171.34;;;17.06;42.08
19783;BME280;10051;40.294;-3.754;2023-02-22T13:01:15;94216.13;;;17.26;41.25
19783;BME280;10051;40.294;-3.754;2023-02-22T13:03:44;94211.22;;;17.36;40.57
19783;BME280;10051;40.294;-3.754;2023-02-22T13:14:43;94173.94;;;17.54;39.96
19783;BME280;10051;40.294;-3.754;2023-02-22T13:22:42;94171.88;;;17.81;39.60
19783;BME280;10051;40.294;-3.754;2023-02-22T13:25:16;94171.38;;;17.88;39.25
19783;BME280;10051;40.294;-3.754;2023-02-22T13:27:53;94081.91;;;17.41;39.12
19783;BME280;10051;40.294;-3.754;2023-02-22T13:30:43;94169.75;;;18.17;38.91
19783;BME280;10051;40.294;-3.754;2023-02-22T13:36:17;94159.56;;;18.19;38.37
19783;BME280;10051;40.294;-3.754;2023-02-22T13:52:52;94129.19;;;18.20;38.47
19783;BME280;10051;40.294;-3.754;2023-02-22T13:55:06;94144.53;;;18.35;38.02
19783;BME280;10051;40.294;-3.754;2023-02-22T14:05:47;94129.38;;;18.15;38.56
19783;BME280;10051;40.294;-3.754;2023-02-22T14:10:56;94086.47;;;18.04;38.67
19783;BME280;10051;40.294;-3.754;2023-02-22T14:13:26;94122.38;;;18.43;38.23
19783;BME280;10051;40.294;-3.754;2023-02-22T14:18:29;94066.31;;;17.94;37.58
19783;BME280;10051;40.294;-3.754;2023-02-22T14:21:42;94078.41;;;17.91;37.42
19783;BME280;10051;40.294;-3.754;2023-02-22T14:24:13;94086.50;;;17.95;37.49
19783;BME280;10051;40.294;-3.754;2023-02-22T14:29:20;94062.31;;;17.88;37.79
19783;BME280;10051;40.294;-3.754;2023-02-22T14:34:20;94082.41;;;18.19;37.29
19783;BME280;10051;40.294;-3.754;2023-02-22T14:37:03;94045.94;;;17.98;37.24
19783;BME280;10051;40.294;-3.754;2023-02-22T14:39:40;94096.41;;;18.40;36.68
19783;BME280;10051;40.294;-3.754;2023-02-22T14:42:18;94098.16;;;18.36;36.94
19783;BME280;10051;40.294;-3.754;2023-02-22T14:45:04;94052.09;;;18.11;36.89
19783;BME280;10051;40.294;-3.754;2023-02-22T14:48:05;94060.47;;;18.22;36.54
19783;BME280;10051;40.294;-3.754;2023-02-22T14:55:46;93989.13;;;17.69;36.62
19783;BME280;10051;40.294;-3.754;2023-02-22T14:58:28;94086.69;;;18.11;36.99
19783;BME280;10051;40.294;-3.754;2023-02-22T15:00:56;94036.06;;;17.65;37.43
19783;BME280;10051;40.294;-3.754;2023-02-22T15:03:27;94075.63;;;17.88;37.83
19783;BME280;10051;40.294;-3.754;2023-02-22T15:06:06;94015.75;;;17.48;37.70
19783;BME280;10051;40.294;-3.754;2023-02-22T15:08:40;94083.38;;;17.93;37.39
19783;BME280;10051;40.294;-3.754;2023-02-22T15:11:28;93948.31;;;16.98;37.50